Time;durP1;ratioP1;P1;durP2;ratioP2;P2;SDS_P1;SDS_P2;PMS_P1;PMS_P2;Temp;Humidity;BMP_temperature;BMP_pressure;BME280_temperature;BME280_humidity;BME280_pressure;Samples;Min_cycle;Max_cycle;Signal;HPM_P1;HPM_P2
2022/03/02 00:00:11;;;;;;;14.93;10.80;;;;;;;0.25;58.22;97460.41;5075107;28;20760;-61
2022/03/02 00:02:37;;;;;;;16.55;11.02;;;;;;;0.38;58.00;97463.44;5075039;28;20387;-61
2022/03/02 00:05:03;;;;;;;15.10;10.83;;;;;;;0.29;58.45;97461.72;5075195;28;20391;-61
2022/03/02 00:07:28;;;;;;;16.05;11.32;;;;;;;0.24;58.72;97469.91;5074447;28;20422;-62
2022/03/02 00:09:53;;;;;;;13.63;10.90;;;;;;;0.32;58.43;97467.41;5074407;28;20419;-61
2022/03/02 00:12:19;;;;;;;13.87;10.10;;;;;;;0.35;58.58;97481.75;5075366;28;20436;-61
2022/03/02 00:14:44;;;;;;;15.87;10.70;;;;;;;0.26;58.72;97480.88;5075037;28;20909;-61
2022/03/02 00:17:10;;;;;;;13.60;10.33;;;;;;;0.44;58.16;97487.84;5074507;28;20394;-61
2022/03/02 00:19:35;;;;;;;14.23;9.88;;;;;;;0.43;57.93;97478.47;5074278;28;20430;-61
2022/03/02 00:22:01;;;;;;;14.45;10.80;;;;;;;0.81;56.80;97476.41;5073618;28;20391;-61
2022/03/02 00:24:26;;;;;;;20.45;10.43;;;;;;;0.63;57.54;97464.47;5074213;28;20856;-61
2022/03/02 00:26:52;;;;;;;15.07;10.60;;;;;;;0.53;57.44;97453.41;5074827;28;20392;-61
2022/03/02 00:29:17;;;;;;;14.13;10.33;;;;;;;0.84;56.72;97445.13;5073042;28;20396;-61
2022/03/02 00:31:43;;;;;;;13.50;9.57;;;;;;;0.63;57.32;97451.56;5073280;28;20399;-61
2022/03/02 00:34:09;;;;;;;12.10;9.35;;;;;;;0.47;57.33;97451.44;5074564;28;20941;-61
2022/03/02 00:36:35;;;;;;;13.23;9.37;;;;;;;0.53;57.44;97441.34;5074543;28;20390;-61
2022/03/02 00:39:01;;;;;;;12.93;9.75;;;;;;;0.58;57.00;97440.91;5073969;28;20486;-64
2022/03/02 00:41:26;;;;;;;13.97;9.80;;;;;;;0.70;56.82;97443.09;5074540;28;20924;-61
2022/03/02 00:43:52;;;;;;;12.97;9.47;;;;;;;0.62;57.07;97430.13;5074354;28;20930;-61
2022/03/02 00:46:17;;;;;;;12.13;9.63;;;;;;;0.72;56.98;97441.19;5074593;28;20819;-61
2022/03/02 00:48:43;;;;;;;12.57;9.77;;;;;;;0.80;56.23;97448.19;5074519;28;20387;-61
2022/03/02 00:51:09;;;;;;;12.25;9.40;;;;;;;0.64;56.79;97451.44;5073812;28;20390;-61
2022/03/02 00:53:34;;;;;;;12.05;9.30;;;;;;;0.70;56.64;97447.44;5073551;28;20732;-62
2022/03/02 00:56:00;;;;;;;12.93;9.10;;;;;;;0.73;56.81;97445.38;5072528;28;20880;-61
2022/03/02 00:58:25;;;;;;;12.17;8.17;;;;;;;0.70;56.47;97447.44;5075048;28;20174;-61
2022/03/02 01:00:50;;;;;;;13.00;7.83;;;;;;;0.66;56.90;97443.56;5073362;28;20204;-61
2022/03/02 01:03:16;;;;;;;13.20;8.70;;;;;;;0.87;55.72;97438.88;5074955;28;20204;-61
2022/03/02 01:05:42;;;;;;;10.30;7.83;;;;;;;0.85;56.04;97438.22;5075243;28;20188;-62
2022/03/02 01:08:07;;;;;;;12.57;7.70;;;;;;;0.83;56.58;97432.41;5075040;28;20188;-61
2022/03/02 01:10:33;;;;;;;9.23;7.40;;;;;;;0.78;56.32;97422.50;5075053;28;20657;-61
2022/03/02 01:12:58;;;;;;;10.67;7.77;;;;;;;0.66;56.94;97425.50;5075015;28;20178;-61
2022/03/02 01:15:24;;;;;;;11.50;7.43;;;;;;;0.76;56.29;97423.66;5075575;28;20216;-61
2022/03/02 01:17:49;;;;;;;13.33;7.90;;;;;;;0.91;56.00;97435.03;5075359;28;20522;-61
2022/03/02 01:20:15;;;;;;;11.13;7.97;;;;;;;0.82;55.61;97431.59;5074976;28;20231;-61
2022/03/02 01:22:42;;;;;;;13.83;8.10;;;;;;;0.92;55.29;97430.69;5074420;28;20185;-61
2022/03/02 01:25:09;;;;;;;8.90;7.37;;;;;;;0.76;55.67;97431.38;5074668;28;20565;-61
2022/03/02 01:27:35;;;;;;;13.30;7.50;;;;;;;0.76;55.61;97427.03;5074924;28;20181;-61
2022/03/02 01:30:00;;;;;;;12.70;7.03;;;;;;;0.55;56.29;97429.13;5074366;28;20261;-61
2022/03/02 01:32:26;;;;;;;10.07;7.20;;;;;;;0.57;56.09;97429.75;5073070;28;20181;-61
2022/03/02 01:34:51;;;;;;;9.10;7.03;;;;;;;0.47;57.08;97425.66;5074633;28;20185;-62
2022/03/02 01:37:17;;;;;;;12.47;8.00;;;;;;;0.55;56.18;97421.38;5074198;28;20260;-61
2022/03/02 01:39:43;;;;;;;12.53;7.50;;;;;;;0.56;56.32;97417.03;5073966;28;20219;-61
2022/03/02 01:42:09;;;;;;;14.10;7.80;;;;;;;0.61;55.64;97417.41;5074304;28;20264;-61
2022/03/02 01:44:36;;;;;;;12.43;7.97;;;;;;;0.57;55.95;97416.06;5074525;28;20679;-61
2022/03/02 01:47:03;;;;;;;20.73;8.23;;;;;;;0.64;55.58;97411.94;5074497;28;20592;-61
2022/03/02 01:49:28;;;;;;;14.67;7.93;;;;;;;0.54;56.38;97404.28;5074084;28;20622;-61
2022/03/02 01:51:54;;;;;;;11.50;7.70;;;;;;;0.80;56.00;97397.38;5074076;28;20226;-61
2022/03/02 01:54:19;;;;;;;12.53;7.63;;;;;;;0.90;55.18;97404.22;5074264;28;20170;-61
2022/03/02 01:56:45;;;;;;;11.63;7.33;;;;;;;0.61;55.87;97397.59;5072571;28;20181;-61
2022/03/02 01:59:10;;;;;;;17.33;7.83;;;;;;;0.59;56.30;97396.09;5073062;28;20197;-61
2022/03/02 02:01:36;;;;;;;10.57;7.73;;;;;;;0.39;56.63;97393.66;5074242;28;20695;-61
2022/03/02 02:04:03;;;;;;;14.73;8.60;;;;;;;0.32;57.07;97397.81;5073690;28;20184;-62
2022/03/02 02:06:30;;;;;;;13.30;8.13;;;;;;;0.38;56.86;97386.91;5073652;28;20180;-61
2022/03/02 02:08:57;;;;;;;10.07;7.87;;;;;;;0.51;56.37;97385.69;5073254;28;20185;-61
2022/03/02 02:11:23;;;;;;;9.77;7.40;;;;;;;0.49;56.55;97374.75;5073682;28;20204;-61
2022/03/02 02:13:49;;;;;;;9.63;7.10;;;;;;;0.46;56.72;97372.44;5073790;28;20208;-61
2022/03/02 02:16:17;;;;;;;14.70;8.87;;;;;;;0.28;56.76;97368.13;5073804;28;20642;-61
2022/03/02 02:18:43;;;;;;;9.87;7.83;;;;;;;0.34;56.66;97362.38;5073617;28;20244;-61
2022/03/02 02:21:09;;;;;;;9.43;7.13;;;;;;;0.36;56.92;97363.03;5073670;28;20665;-61
2022/03/02 02:23:36;;;;;;;10.40;7.30;;;;;;;0.30;56.97;97355.09;5074014;28;20200;-61
2022/03/02 02:26:03;;;;;;;13.17;7.87;;;;;;;0.22;57.68;97349.88;5073664;28;20220;-61
2022/03/02 02:28:30;;;;;;;12.63;7.37;;;;;;;0.06;57.96;97342.00;5073801;28;20215;-61
2022/03/02 02:30:58;;;;;;;13.03;8.10;;;;;;;0.17;58.00;97336.63;5073798;28;20185;-61
2022/03/02 02:33:25;;;;;;;11.73;7.93;;;;;;;-0.07;58.34;97345.75;5073481;28;20188;-61
2022/03/02 02:35:50;;;;;;;10.70;7.17;;;;;;;-0.06;58.10;97333.69;5073343;28;20249;-61
2022/03/02 02:38:17;;;;;;;11.20;7.43;;;;;;;0.04;57.97;97329.25;5072319;28;20618;-61
2022/03/02 02:40:43;;;;;;;10.53;7.63;;;;;;;0.06;58.11;97336.84;5073365;28;20201;-61
2022/03/02 02:43:09;;;;;;;14.80;8.03;;;;;;;0.04;57.88;97331.84;5073551;28;20256;-61
2022/03/02 02:45:35;;;;;;;14.33;8.33;;;;;;;-0.11;58.70;97334.09;5072020;28;20275;-63
2022/03/02 02:48:01;;;;;;;12.93;7.93;;;;;;;-0.07;58.60;97319.97;5073852;28;20235;-61
2022/03/02 02:50:29;;;;;;;11.63;7.27;;;;;;;-0.13;58.45;97314.59;5073188;28;20185;-61
2022/03/02 02:52:55;;;;;;;12.47;7.43;;;;;;;-0.11;58.54;97317.81;5073290;28;20177;-61
2022/03/02 02:55:24;;;;;;;12.03;7.63;;;;;;;-0.34;59.45;97321.81;5072465;28;20173;-61
2022/03/02 02:57:50;;;;;;;10.47;7.10;;;;;;;-0.35;59.16;97320.19;5073300;28;20251;-61
2022/03/02 03:00:18;;;;;;;11.30;7.60;;;;;;;-0.30;59.30;97325.69;5073355;28;20258;-61
2022/03/02 03:02:46;;;;;;;11.47;7.20;;;;;;;-0.30;59.15;97336.00;5073286;28;20177;-61
2022/03/02 03:05:12;;;;;;;11.50;7.43;;;;;;;-0.22;59.03;97341.22;5073092;28;20189;-61
2022/03/02 03:07:38;;;;;;;10.03;6.73;;;;;;;-0.50;59.72;97337.84;5072715;28;20196;-62
2022/03/02 03:10:06;;;;;;;9.53;7.00;;;;;;;-0.57;60.48;97337.66;5072739;28;20668;-61
2022/03/02 03:12:33;;;;;;;12.03;7.33;;;;;;;-0.61;60.57;97343.19;5073075;28;20185;-61
2022/03/02 03:14:58;;;;;;;12.30;6.70;;;;;;;-0.47;60.38;97340.16;5072931;28;20177;-61
2022/03/02 03:17:24;;;;;;;12.23;7.97;;;;;;;-0.26;59.46;97339.91;5071773;28;20276;-61
2022/03/02 03:19:49;;;;;;;15.50;8.23;;;;;;;-0.22;59.41;97331.72;5072060;28;20221;-61
2022/03/02 03:22:14;;;;;;;13.40;8.33;;;;;;;-0.31;59.72;97329.22;5073094;28;20268;-60
2022/03/02 03:24:40;;;;;;;11.90;7.97;;;;;;;-0.57;60.30;97332.50;5072696;28;20185;-60
2022/03/02 03:27:05;;;;;;;10.90;7.93;;;;;;;-0.69;60.82;97333.63;5073052;28;20269;-60
2022/03/02 03:29:30;;;;;;;15.10;7.73;;;;;;;-0.67;60.84;97330.94;5072399;28;20695;-60
2022/03/02 03:31:56;;;;;;;14.67;7.80;;;;;;;-0.81;61.19;97328.81;5072789;28;20177;-60
2022/03/02 03:34:21;;;;;;;11.93;8.03;;;;;;;-0.84;61.53;97327.34;5072074;28;20181;-60
2022/03/02 03:36:47;;;;;;;12.90;8.10;;;;;;;-0.86;61.44;97317.19;5072422;28;20187;-60
2022/03/02 03:39:12;;;;;;;12.60;7.60;;;;;;;-0.78;61.29;97319.03;5072175;28;20208;-60
2022/03/02 03:41:37;;;;;;;9.53;7.10;;;;;;;-0.64;60.33;97312.63;5072420;28;20224;-60
2022/03/02 03:44:03;;;;;;;12.30;7.40;;;;;;;-0.66;60.71;97310.19;5071725;28;20181;-60
2022/03/02 03:46:28;;;;;;;11.37;7.33;;;;;;;-0.90;61.85;97315.06;5073046;28;20264;-60
2022/03/02 03:48:53;;;;;;;12.80;7.90;;;;;;;-0.96;61.65;97315.63;5072970;28;20201;-60
2022/03/02 03:51:19;;;;;;;12.10;7.73;;;;;;;-0.89;61.84;97321.78;5072297;28;20699;-61
2022/03/02 03:53:45;;;;;;;12.97;8.27;;;;;;;-0.86;61.40;97322.34;5072739;28;20634;-60
2022/03/02 03:56:10;;;;;;;14.23;7.17;;;;;;;-0.88;61.71;97313.94;5072327;28;20541;-60
2022/03/02 03:58:35;;;;;;;11.27;7.80;;;;;;;-0.81;61.43;97311.63;5072619;28;20537;-60
2022/03/02 04:01:01;;;;;;;11.70;7.77;;;;;;;-0.82;61.74;97314.31;5072648;28;20284;-60
2022/03/02 04:03:27;;;;;;;13.43;7.47;;;;;;;-0.94;61.97;97316.25;5071246;28;20185;-60
2022/03/02 04:05:52;;;;;;;11.33;7.70;;;;;;;-0.76;61.31;97317.13;5072643;28;20219;-60
2022/03/02 04:08:17;;;;;;;9.83;7.57;;;;;;;-0.83;61.48;97310.94;5071146;28;20200;-61
2022/03/02 04:10:45;;;;;;;13.20;8.40;;;;;;;-0.74;61.54;97310.09;5071304;28;20243;-60
2022/03/02 04:13:12;;;;;;;13.23;8.00;;;;;;;-0.52;60.63;97303.75;5072318;28;20185;-61
2022/03/02 04:15:38;;;;;;;10.43;7.60;;;;;;;-0.67;60.96;97307.78;5072370;28;20204;-60
2022/03/02 04:18:06;;;;;;;13.03;8.20;;;;;;;-0.85;61.56;97297.44;5072410;28;20203;-60
2022/03/02 04:20:32;;;;;;;11.83;8.00;;;;;;;-0.97;62.30;97304.50;5072277;28;20221;-60
2022/03/02 04:22:57;;;;;;;10.43;7.30;;;;;;;-1.03;62.00;97304.25;5072265;28;20182;-60
2022/03/02 04:25:23;;;;;;;11.27;7.70;;;;;;;-0.88;61.79;97302.84;5072151;28;20645;-60
2022/03/02 04:27:48;;;;;;;10.83;7.33;;;;;;;-0.91;62.36;97298.00;5072555;28;20208;-60
2022/03/02 04:30:14;;;;;;;11.90;7.40;;;;;;;-0.88;61.90;97290.78;5072084;28;20224;-60
2022/03/02 04:32:39;;;;;;;11.53;7.80;;;;;;;-0.85;61.79;97290.53;5076180;28;20621;-61
2022/03/02 04:35:06;;;;;;;20.70;8.30;;;;;;;-0.82;61.46;97288.59;5074361;28;20181;-61
2022/03/02 04:37:32;;;;;;;11.60;8.00;;;;;;;-0.78;61.39;97284.81;5075889;28;20165;-61
2022/03/02 04:39:58;;;;;;;13.23;8.50;;;;;;;-0.81;61.85;97282.50;5075658;28;20201;-61
2022/03/02 04:42:23;;;;;;;11.67;8.27;;;;;;;-0.99;62.43;97282.44;5075837;28;20223;-60
2022/03/02 04:44:48;;;;;;;14.50;8.50;;;;;;;-1.01;62.42;97280.03;5076219;28;20669;-60
2022/03/02 04:47:14;;;;;;;15.33;8.57;;;;;;;-0.82;62.39;97276.53;5075648;28;20184;-60
2022/03/02 04:49:39;;;;;;;16.83;9.63;;;;;;;-0.88;62.58;97277.94;5075193;28;20189;-61
2022/03/02 04:52:05;;;;;;;14.53;9.33;;;;;;;-1.02;63.22;97269.88;5076116;28;20188;-60
2022/03/02 04:57:14;;;;;;;13.03;8.80;;;;;;;-1.14;63.47;97266.69;5075321;28;20180;-61
2022/03/02 04:59:40;;;;;;;12.97;9.43;;;;;;;-1.16;64.08;97278.03;5075560;28;20197;-61
2022/03/02 05:02:06;;;;;;;15.83;9.30;;;;;;;-1.16;64.34;97278.03;5075482;28;20184;-61
2022/03/02 05:04:31;;;;;;;14.27;8.87;;;;;;;-1.10;64.40;97269.78;5075556;28;20181;-60
2022/03/02 05:06:57;;;;;;;15.50;9.13;;;;;;;-1.22;64.62;97268.31;5075788;28;20178;-60
2022/03/02 05:09:22;;;;;;;22.93;10.17;;;;;;;-1.22;64.72;97265.75;5075343;28;20701;-61
2022/03/02 05:11:47;;;;;;;16.30;9.10;;;;;;;-1.19;64.80;97262.91;5075247;28;20181;-60
2022/03/02 05:14:13;;;;;;;14.57;10.00;;;;;;;-1.19;64.99;97260.34;5075350;28;20227;-60
2022/03/02 05:16:38;;;;;;;12.80;8.90;;;;;;;-1.35;64.85;97263.53;5075048;28;20184;-60
2022/03/02 05:19:03;;;;;;;16.17;9.90;;;;;;;-1.34;65.43;97262.56;5074821;28;20233;-61
2022/03/02 05:21:29;;;;;;;15.53;9.93;;;;;;;-1.38;65.90;97261.22;5075097;28;20257;-60
2022/03/02 05:23:54;;;;;;;15.97;9.90;;;;;;;-1.47;65.96;97259.50;5074283;28;20678;-60
2022/03/02 05:26:19;;;;;;;18.97;12.60;;;;;;;-1.48;66.22;97257.88;5073505;28;20411;-61
2022/03/02 05:28:45;;;;;;;18.03;12.70;;;;;;;-1.11;65.02;97248.38;5073907;28;20383;-60
2022/03/02 05:31:10;;;;;;;19.27;13.33;;;;;;;-1.06;64.94;97247.97;5073775;28;20402;-60
2022/03/02 05:33:35;;;;;;;16.47;12.43;;;;;;;-1.17;64.92;97251.53;5073625;28;20395;-61
2022/03/02 05:36:01;;;;;;;18.17;11.23;;;;;;;-1.41;65.63;97253.78;5073626;28;20415;-60
2022/03/02 05:38:27;;;;;;;16.27;9.97;;;;;;;-1.54;66.94;97246.38;5074520;28;20173;-60
2022/03/02 05:40:52;;;;;;;16.17;10.73;;;;;;;-1.46;66.12;97240.56;5074296;28;20615;-61
2022/03/02 05:43:17;;;;;;;15.60;10.63;;;;;;;-1.55;67.10;97246.53;5074421;28;20185;-61
2022/03/02 05:45:43;;;;;;;13.67;10.07;;;;;;;-1.42;66.06;97240.13;5073306;28;20181;-61
2022/03/02 05:48:09;;;;;;;14.53;9.43;;;;;;;-1.35;65.52;97240.38;5073225;28;20200;-61
2022/03/02 05:50:34;;;;;;;15.40;9.87;;;;;;;-1.25;65.69;97243.72;5073364;28;20691;-60
2022/03/02 05:53:00;;;;;;;13.37;8.93;;;;;;;-1.26;65.57;97232.63;5074306;28;20208;-61
2022/03/02 05:55:25;;;;;;;15.40;9.97;;;;;;;-1.22;65.01;97240.84;5072640;28;20223;-61
2022/03/02 05:57:50;;;;;;;17.47;9.27;;;;;;;-1.12;64.80;97241.66;5074410;28;20231;-61
2022/03/02 06:00:16;;;;;;;17.13;9.27;;;;;;;-1.14;65.23;97246.09;5072795;28;20544;-61
2022/03/02 06:02:42;;;;;;;16.10;10.17;;;;;;;-1.02;64.69;97244.16;5074133;28;20185;-61
2022/03/02 06:05:11;;;;;;;16.10;9.23;;;;;;;-0.98;64.09;97248.06;5073927;28;20181;-60
2022/03/02 06:07:37;;;;;;;12.87;8.20;;;;;;;-0.97;64.26;97236.81;5056310;28;20260;-61
2022/03/02 06:10:03;;;;;;;15.17;9.63;;;;;;;-0.74;64.30;97238.06;5074135;28;20185;-61
2022/03/02 06:12:29;;;;;;;11.13;8.10;;;;;;;-0.87;64.34;97250.44;5073721;28;20524;-60
2022/03/02 06:14:55;;;;;;;16.70;10.20;;;;;;;-0.88;64.12;97246.25;5074479;28;20173;-61
2022/03/02 06:17:21;;;;;;;17.00;11.70;;;;;;;-0.69;63.88;97240.19;5071592;28;20400;-60
2022/03/02 06:19:46;;;;;;;14.63;10.37;;;;;;;-0.77;63.98;97232.38;5073940;28;20236;-60
2022/03/02 06:22:16;;;;;;;19.00;9.73;;;;;;;-0.64;63.83;97230.25;5074149;28;20189;-61
2022/03/02 06:24:42;;;;;;;17.15;11.50;;;;;;;-0.66;64.13;97225.25;5072530;28;20410;-61
2022/03/02 06:27:07;;;;;;;15.57;10.47;;;;;;;-0.58;64.04;97230.50;5073257;28;20614;-61
2022/03/02 06:29:32;;;;;;;14.33;9.33;;;;;;;-0.76;64.34;97221.13;5073840;28;20681;-62
2022/03/02 06:31:58;;;;;;;15.60;9.60;;;;;;;-0.33;62.90;97226.34;5073414;28;20177;-61
2022/03/02 06:34:23;;;;;;;16.57;10.60;;;;;;;-0.21;62.76;97226.94;5073583;28;20178;-61
2022/03/02 06:36:50;;;;;;;14.70;9.93;;;;;;;-0.11;62.47;97219.94;5073327;28;20173;-61
2022/03/02 06:39:20;;;;;;;14.17;8.83;;;;;;;-0.38;63.10;97214.88;5073396;28;20193;-61
2022/03/02 06:42:11;;;;;;;18.60;11.70;;;;;;;-0.25;63.05;97221.28;5072514;28;20788;-61
2022/03/02 06:44:39;;;;;;;17.08;11.90;;;;;;;0.04;61.90;97235.69;5072356;28;20449;-61
2022/03/02 06:47:09;;;;;;;17.50;12.25;;;;;;;0.14;61.68;97241.56;5072304;28;20700;-63
2022/03/02 06:50:08;;;;;;;16.35;11.50;;;;;;;0.18;61.73;97238.53;5072107;28;20396;-61
2022/03/02 06:52:35;;;;;;;16.70;12.20;;;;;;;0.00;62.39;97237.75;5072000;28;20698;-61
2022/03/02 06:55:06;;;;;;;16.13;12.00;;;;;;;-0.03;62.50;97243.19;5069884;28;20852;-62
2022/03/02 06:57:32;;;;;;;14.55;11.63;;;;;;;-0.05;62.81;97240.75;5071878;28;20840;-61
2022/03/02 07:00:08;;;;;;;16.17;11.40;;;;;;;0.29;61.95;97245.19;5071288;28;20408;-63
2022/03/02 07:02:48;;;;;;;18.45;12.30;;;;;;;0.16;62.30;97237.06;5057413;28;20718;-59
2022/03/02 07:05:14;;;;;;;16.02;11.70;;;;;;;0.31;62.84;97238.13;5072290;28;20438;-61
2022/03/02 07:07:39;;;;;;;18.00;12.63;;;;;;;0.36;62.76;97235.91;5072093;28;20775;-61
2022/03/02 07:10:07;;;;;;;16.27;11.77;;;;;;;0.57;61.92;97238.13;5070065;28;20418;-62
2022/03/02 07:12:33;;;;;;;16.50;12.02;;;;;;;0.67;61.12;97236.25;5071897;28;20408;-60
2022/03/02 07:14:59;;;;;;;17.42;12.75;;;;;;;0.79;60.67;97229.84;5071535;28;20410;-61
2022/03/02 07:17:32;;;;;;;15.77;11.80;;;;;;;1.10;59.95;97233.53;5072125;28;20398;-61
2022/03/02 07:19:58;;;;;;;16.50;11.33;;;;;;;1.03;59.67;97236.88;5071628;28;20547;-61
2022/03/02 07:22:30;;;;;;;22.13;12.40;;;;;;;1.18;58.59;97250.81;5071477;28;20418;-62
2022/03/02 07:25:04;;;;;;;13.65;10.73;;;;;;;1.53;57.53;97254.94;5071522;28;20686;-60
2022/03/02 07:27:31;;;;;;;16.00;11.02;;;;;;;1.83;57.54;97259.53;5071284;28;20407;-61
2022/03/02 07:29:56;;;;;;;14.90;11.13;;;;;;;1.75;57.68;97253.53;5071551;28;20391;-61
2022/03/02 07:32:25;;;;;;;15.83;11.37;;;;;;;2.21;56.61;97252.09;5071736;28;20382;-61
2022/03/02 07:34:56;;;;;;;17.85;12.25;;;;;;;1.87;59.40;97252.25;5071317;28;20509;-61
2022/03/02 07:37:23;;;;;;;18.38;12.55;;;;;;;1.96;59.40;97251.28;5070165;28;20490;-62
2022/03/02 07:39:49;;;;;;;17.98;12.85;;;;;;;1.74;60.89;97250.13;5071463;28;20411;-62
2022/03/02 07:42:15;;;;;;;18.83;12.50;;;;;;;1.20;62.83;97257.44;5071730;28;20399;-63
2022/03/02 07:44:41;;;;;;;16.70;12.23;;;;;;;1.62;61.87;97254.78;5071443;28;20395;-64
2022/03/02 07:47:08;;;;;;;16.10;12.35;;;;;;;1.92;61.46;97250.00;5070096;28;20493;-62
2022/03/02 07:49:35;;;;;;;19.83;13.15;;;;;;;2.03;60.58;97240.16;5071127;28;20409;-63
2022/03/02 07:52:02;;;;;;;17.93;12.37;;;;;;;1.95;61.60;97236.75;5070869;28;20433;-63
2022/03/02 07:54:30;;;;;;;16.85;12.60;;;;;;;2.17;61.47;97249.03;5070541;28;20469;-63
2022/03/02 07:56:57;;;;;;;19.70;12.90;;;;;;;2.25;62.16;97243.84;5070370;28;20418;-62
2022/03/02 07:59:23;;;;;;;19.50;12.60;;;;;;;1.96;62.86;97246.09;5070391;28;20881;-63
2022/03/02 08:01:48;;;;;;;16.50;12.53;;;;;;;1.79;63.15;97252.22;5070604;28;20517;-63
2022/03/02 08:04:14;;;;;;;17.37;12.93;;;;;;;1.91;63.13;97250.97;5070677;28;20841;-64
2022/03/02 08:06:41;;;;;;;20.88;14.00;;;;;;;2.26;61.64;97250.63;5073275;28;20384;-63
2022/03/02 08:09:08;;;;;;;22.25;14.05;;;;;;;2.11;62.12;97257.44;5074562;28;20392;-63
2022/03/02 08:11:35;;;;;;;19.45;12.40;;;;;;;2.82;61.82;97246.31;5066163;28;20429;-63
2022/03/02 08:14:03;;;;;;;17.02;13.00;;;;;;;3.12;59.46;97247.38;5075289;28;20406;-63
2022/03/02 08:16:29;;;;;;;18.60;13.45;;;;;;;3.11;59.02;97253.50;5074722;28;20391;-65
2022/03/02 08:18:57;;;;;;;19.03;12.93;;;;;;;2.89;58.05;97250.69;5073458;28;20441;-64
2022/03/02 08:21:26;;;;;;;18.30;12.82;;;;;;;2.75;57.24;97258.31;5075223;28;20403;-63
2022/03/02 08:23:55;;;;;;;16.02;11.40;;;;;;;2.37;57.93;97252.91;5073655;28;20380;-63
2022/03/02 08:26:23;;;;;;;17.25;12.32;;;;;;;2.61;58.07;97264.19;5074881;28;20367;-63
2022/03/02 08:28:53;;;;;;;19.77;12.70;;;;;;;2.90;57.22;97259.22;5073981;28;20775;-62
2022/03/02 08:31:19;;;;;;;17.25;12.88;;;;;;;3.02;57.16;97257.91;5073468;28;20855;-62
2022/03/02 08:33:45;;;;;;;19.73;13.57;;;;;;;2.80;58.47;97261.22;5074642;28;20388;-62
2022/03/02 08:36:11;;;;;;;17.23;11.67;;;;;;;2.71;58.03;97252.66;5061001;28;20177;-63
2022/03/02 08:38:42;;;;;;;;;;;;;;;3.07;56.46;97244.44;5056509;28;20035;-62
2022/03/02 08:41:10;;;;;;;15.43;10.63;;;;;;;2.70;56.06;97239.88;5070711;28;20492;-63
2022/03/02 08:43:36;;;;;;;18.60;10.73;;;;;;;2.67;55.84;97240.22;5075983;28;20625;-63
2022/03/02 08:46:03;;;;;;;16.13;9.90;;;;;;;3.08;55.02;97244.28;5070317;28;20222;-63
2022/03/02 08:48:29;;;;;;;12.30;9.37;;;;;;;3.27;54.13;97236.13;5055445;28;20174;-63
2022/03/02 08:50:56;;;;;;;13.27;9.00;;;;;;;3.57;53.85;97237.06;5055802;28;20201;-63
2022/03/02 08:53:24;;;;;;;15.73;9.63;;;;;;;3.34;53.58;97233.66;5055826;28;20174;-62
2022/03/02 08:55:51;;;;;;;14.50;9.13;;;;;;;3.47;53.83;97244.25;5056055;28;20549;-64
2022/03/02 08:58:17;;;;;;;18.93;9.60;;;;;;;3.56;53.47;97239.84;5072270;28;20626;-64
2022/03/02 09:00:42;;;;;;;16.23;9.50;;;;;;;3.59;52.48;97242.91;5072431;28;20203;-63
2022/03/02 09:03:13;;;;;;;15.60;9.63;;;;;;;4.01;51.48;97242.44;5074235;28;20185;-64
2022/03/02 09:05:39;;;;;;;12.80;8.93;;;;;;;3.83;51.44;97238.53;5074878;28;20161;-63
2022/03/02 09:08:06;;;;;;;12.37;8.50;;;;;;;4.04;51.42;97234.31;5074806;28;20185;-64
2022/03/02 09:10:32;;;;;;;15.60;9.87;;;;;;;3.89;51.94;97230.06;5074937;28;20177;-63
2022/03/02 09:12:59;;;;;;;15.23;8.93;;;;;;;4.11;50.80;97226.66;5075009;28;20532;-62
2022/03/02 09:15:28;;;;;;;12.73;8.60;;;;;;;4.30;50.46;97220.16;5073980;28;20264;-63
2022/03/02 09:17:55;;;;;;;16.60;9.87;;;;;;;4.38;50.32;97222.69;5073374;28;20178;-63
2022/03/02 09:20:21;;;;;;;15.93;9.43;;;;;;;4.27;50.79;97230.88;5074640;28;20244;-63
2022/03/02 09:22:46;;;;;;;15.17;8.90;;;;;;;4.70;50.20;97229.31;5073753;28;20271;-63
2022/03/02 09:25:12;;;;;;;14.90;9.33;;;;;;;5.00;48.48;97229.16;5075063;28;20178;-63
2022/03/02 09:27:39;;;;;;;16.07;9.83;;;;;;;4.77;49.19;97225.03;5059609;28;20546;-63
2022/03/02 09:30:09;;;;;;;16.47;9.27;;;;;;;5.08;48.67;97225.63;5055263;28;20174;-63
2022/03/02 09:32:41;;;;;;;18.70;10.10;;;;;;;5.33;48.44;97218.34;5054798;28;20521;-63
2022/03/02 09:35:12;;;;;;;15.93;8.93;;;;;;;5.40;47.99;97217.44;5054789;28;20236;-63
2022/03/02 09:37:41;;;;;;;13.10;9.40;;;;;;;5.07;48.74;97221.44;5054814;28;20661;-63
2022/03/02 09:40:19;;;;;;;13.57;9.03;;;;;;;5.17;48.80;97223.75;5070716;28;20204;-63
2022/03/02 09:42:52;;;;;;;13.80;9.77;;;;;;;5.36;48.87;97223.97;5064041;28;20165;-64
2022/03/02 09:45:21;;;;;;;13.70;9.07;;;;;;;5.39;48.95;97221.03;5074683;28;20166;-63
2022/03/02 09:47:52;;;;;;;14.27;9.93;;;;;;;5.65;48.73;97217.91;5074329;28;20569;-63
2022/03/02 09:50:18;;;;;;;20.10;10.07;;;;;;;5.81;49.59;97227.25;5074638;28;20170;-63
2022/03/02 09:52:46;;;;;;;13.67;9.20;;;;;;;6.04;49.35;97217.50;5074353;28;20174;-63
2022/03/02 09:55:14;;;;;;;17.03;9.27;;;;;;;5.81;47.35;97220.25;5073792;28;20181;-64
2022/03/02 09:57:49;;;;;;;14.03;9.33;;;;;;;6.13;46.60;97220.78;5072421;28;20209;-63
2022/03/02 10:00:18;;;;;;;12.93;8.97;;;;;;;6.00;46.55;97216.28;5074173;28;20196;-63
2022/03/02 10:02:47;;;;;;;12.13;8.47;;;;;;;5.79;45.45;97213.66;5074372;28;20212;-63
2022/03/02 10:05:27;;;;;;;13.33;8.83;;;;;;;5.77;45.80;97215.63;5073949;28;20260;-63
2022/03/02 10:08:05;;;;;;;12.63;8.70;;;;;;;5.86;46.02;97217.09;5073908;28;20185;-63
2022/03/02 10:10:33;;;;;;;11.93;9.00;;;;;;;5.79;46.85;97216.25;5073595;28;20564;-63
2022/03/02 10:13:01;;;;;;;13.73;9.30;;;;;;;5.67;46.77;97213.34;5074158;28;20165;-63
2022/03/02 10:15:28;;;;;;;15.40;9.73;;;;;;;5.88;47.35;97209.94;5074017;28;20539;-63
2022/03/02 10:17:58;;;;;;;13.00;8.77;;;;;;;5.89;47.34;97205.56;5074185;28;20676;-61
2022/03/02 10:20:29;;;;;;;15.97;8.80;;;;;;;6.13;46.14;97207.78;5072225;28;20229;-62
2022/03/02 10:22:57;;;;;;;13.13;8.93;;;;;;;6.20;45.55;97203.41;5073496;28;20205;-61
2022/03/02 10:25:47;;;;;;;13.33;9.20;;;;;;;6.49;45.60;97202.41;5055999;28;20180;-62
2022/03/02 10:28:21;;;;;;;13.10;9.30;;;;;;;7.00;44.15;97192.50;5067804;28;20192;-64
2022/03/02 10:30:58;;;;;;;11.67;8.53;;;;;;;7.05;43.78;97195.31;5073323;28;20177;-64
2022/03/02 10:33:25;;;;;;;14.53;8.60;;;;;;;7.24;43.37;97194.59;5072784;28;20195;-61
2022/03/02 10:35:59;;;;;;;13.53;9.23;;;;;;;7.13;43.69;97194.38;5073569;28;20184;-63
2022/03/02 10:38:43;;;;;;;12.43;8.87;;;;;;;7.25;43.12;97190.16;5072912;28;20239;-62
2022/03/02 10:41:09;;;;;;;12.93;8.00;;;;;;;7.20;42.79;97180.34;5055397;28;20342;-63
2022/03/02 10:44:02;;;;;;;11.57;8.77;;;;;;;7.16;43.82;97184.34;5073364;28;20192;-62
2022/03/02 10:46:28;;;;;;;12.77;8.53;;;;;;;7.34;43.46;97194.22;5055264;28;20200;-62
2022/03/02 10:49:11;;;;;;;13.30;8.37;;;;;;;7.40;42.52;97183.03;5073444;28;20650;-62
2022/03/02 10:51:39;;;;;;;12.57;8.43;;;;;;;7.49;42.33;97180.03;5072792;28;20173;-62
2022/03/02 10:54:06;;;;;;;12.70;8.10;;;;;;;7.27;43.08;97175.16;5072929;28;20188;-62
2022/03/02 10:56:40;;;;;;;12.87;8.43;;;;;;;6.93;44.44;97176.81;5072792;28;20276;-62
2022/03/02 10:59:08;;;;;;;14.67;9.13;;;;;;;7.28;43.69;97168.94;5073292;28;20169;-62
2022/03/02 11:01:36;;;;;;;15.03;8.37;;;;;;;7.48;43.04;97167.19;5072592;28;20189;-62
2022/03/02 11:04:02;;;;;;;13.10;8.57;;;;;;;7.07;42.87;97162.88;5055229;28;20652;-62
2022/03/02 11:06:29;;;;;;;16.17;9.07;;;;;;;7.34;42.58;97165.56;5072621;28;20531;-62
2022/03/02 11:09:00;;;;;;;12.43;8.20;;;;;;;7.36;41.85;97158.31;5054637;28;20535;-62
2022/03/02 11:11:26;;;;;;;13.37;7.90;;;;;;;7.39;42.03;97160.53;5055827;28;20560;-61
2022/03/02 11:13:52;;;;;;;11.73;9.07;;;;;;;7.43;42.38;97157.34;5072021;28;20173;-61
2022/03/02 11:16:21;;;;;;;13.90;8.40;;;;;;;7.43;42.08;97146.09;5054673;28;20508;-62
2022/03/02 11:18:50;;;;;;;10.90;8.03;;;;;;;7.64;41.27;97145.94;5072295;28;20259;-62
2022/03/02 11:21:20;;;;;;;13.30;8.77;;;;;;;7.59;41.60;97147.53;5072576;28;20181;-62
2022/03/02 11:23:49;;;;;;;13.50;8.20;;;;;;;7.60;41.63;97136.09;5071925;28;20208;-62
2022/03/02 11:26:24;;;;;;;12.03;8.50;;;;;;;7.64;41.40;97137.31;5071494;28;20222;-63
2022/03/02 11:28:52;;;;;;;14.47;9.00;;;;;;;7.05;43.31;97136.19;5072569;28;20161;-61
2022/03/02 11:31:38;;;;;;;11.30;8.37;;;;;;;7.22;43.63;97136.63;5072458;28;20181;-62